createdAt,value
2023-05-22T00:00:13.788Z,1017.16
2023-05-22T00:01:17.859Z,1017.17
2023-05-22T00:02:22.171Z,1017.18
2023-05-22T00:03:26.665Z,1017.16
2023-05-22T00:04:31.033Z,1017.17
2023-05-22T00:05:35.453Z,1017.20
2023-05-22T00:06:39.737Z,1017.18
2023-05-22T00:07:44.072Z,1017.18
2023-05-22T00:08:48.509Z,1017.18
2023-05-22T00:09:52.893Z,1017.17
2023-05-22T00:10:57.303Z,1017.16
2023-05-22T00:12:01.665Z,1017.16
2023-05-22T00:13:05.967Z,1017.16
2023-05-22T00:14:10.403Z,1017.15
2023-05-22T00:15:14.662Z,1017.14
2023-05-22T00:16:18.967Z,1017.15
2023-05-22T00:17:23.403Z,1017.14
2023-05-22T00:18:27.698Z,1017.15
2023-05-22T00:19:32.185Z,1017.18
2023-05-22T00:20:36.572Z,1017.16
2023-05-22T00:21:40.994Z,1017.17
2023-05-22T00:22:45.242Z,1017.17
2023-05-22T00:23:49.630Z,1017.16
2023-05-22T00:24:54.030Z,1017.15
2023-05-22T00:25:58.366Z,1017.16
2023-05-22T00:27:02.791Z,1017.15
2023-05-22T00:28:07.206Z,1017.17
2023-05-22T00:29:11.667Z,1017.16
2023-05-22T00:30:15.984Z,1017.19
2023-05-22T00:31:20.324Z,1017.17
2023-05-22T00:32:24.767Z,1017.20
2023-05-22T00:33:29.135Z,1017.20
2023-05-22T00:34:33.486Z,1017.19
2023-05-22T00:35:37.766Z,1017.16
2023-05-22T00:36:42.162Z,1017.15
2023-05-22T00:37:46.552Z,1017.16
2023-05-22T00:40:18.009Z,1017.16
2023-05-22T00:41:22.334Z,1017.14
2023-05-22T00:42:26.605Z,1017.16
2023-05-22T00:43:31.030Z,1017.17
2023-05-22T00:44:35.291Z,1017.15
2023-05-22T00:45:39.694Z,1017.13
2023-05-22T00:46:44.046Z,1017.13
2023-05-22T00:47:48.395Z,1017.12
2023-05-22T00:48:52.772Z,1017.13
2023-05-22T00:49:57.124Z,1017.11
2023-05-22T00:51:07.588Z,1017.11
2023-05-22T00:52:10.528Z,1017.12
2023-05-22T00:53:15.045Z,1017.12
2023-05-22T00:54:19.280Z,1017.09
2023-05-22T00:55:23.789Z,1017.09
2023-05-22T00:56:28.050Z,1017.10
2023-05-22T00:57:32.452Z,1017.07
2023-05-22T00:58:36.828Z,1017.06
2023-05-22T00:59:41.262Z,1017.07
2023-05-22T01:00:45.611Z,1017.04
2023-05-22T01:01:50.007Z,1017.05
2023-05-22T01:02:54.368Z,1017.04
2023-05-22T01:03:58.652Z,1017.03
2023-05-22T01:05:02.903Z,1017.06
2023-05-22T01:06:07.312Z,1017.02
2023-05-22T01:07:25.746Z,1017.04
2023-05-22T01:08:29.215Z,1017.02
2023-05-22T01:09:33.440Z,1017.01
2023-05-22T01:10:38.148Z,1017.02
2023-05-22T01:11:42.318Z,1017.02
2023-05-22T01:12:46.583Z,1017.02
2023-05-22T01:13:51.032Z,1017.01
2023-05-22T01:14:55.403Z,1017.02
2023-05-22T01:17:27.052Z,1017.00
2023-05-22T01:18:31.201Z,1017.02
2023-05-22T01:19:35.831Z,1017.01
2023-05-22T01:20:40.235Z,1017.00
2023-05-22T01:21:44.291Z,1017.01
2023-05-22T01:22:48.628Z,1017.01
2023-05-22T01:23:53.151Z,1017.02
2023-05-22T01:24:57.504Z,1017.00
2023-05-22T01:26:01.948Z,1017.00
2023-05-22T01:27:06.251Z,1016.99
2023-05-22T01:28:10.673Z,1016.99
2023-05-22T01:29:14.930Z,1016.95
2023-05-22T01:30:35.381Z,1016.97
2023-05-22T01:31:38.795Z,1016.95
2023-05-22T01:32:43.154Z,1016.95
2023-05-22T01:33:47.541Z,1016.97
2023-05-22T01:34:51.779Z,1016.96
2023-05-22T01:35:56.090Z,1016.98
2023-05-22T01:37:00.439Z,1016.99
2023-05-22T01:38:04.873Z,1017.01
2023-05-22T01:39:09.172Z,1017.01
2023-05-22T01:40:13.468Z,1017.02
2023-05-22T01:41:17.815Z,1017.01
2023-05-22T01:42:22.229Z,1016.99
2023-05-22T01:43:26.603Z,1017.00
2023-05-22T01:44:30.965Z,1016.99
2023-05-22T01:45:35.462Z,1017.01
2023-05-22T01:46:39.662Z,1017.03
2023-05-22T01:47:44.093Z,1017.01
2023-05-22T01:48:48.436Z,1017.01
2023-05-22T01:49:52.704Z,1017.00
2023-05-22T01:50:57.130Z,1017.02
2023-05-22T01:52:01.474Z,1017.00
2023-05-22T01:53:05.875Z,1016.98
2023-05-22T01:54:10.198Z,1016.98
2023-05-22T01:55:14.612Z,1016.99
2023-05-22T01:56:18.843Z,1016.97
2023-05-22T01:57:23.243Z,1017.00
2023-05-22T01:58:27.586Z,1016.98
2023-05-22T01:59:31.939Z,1016.99
2023-05-22T02:00:36.442Z,1016.97
2023-05-22T02:01:40.773Z,1016.96
2023-05-22T02:02:45.082Z,1016.95
2023-05-22T02:03:49.315Z,1016.93
2023-05-22T02:04:53.638Z,1016.91
2023-05-22T02:05:58.039Z,1016.91
2023-05-22T02:07:02.309Z,1016.91
2023-05-22T02:08:06.746Z,1016.94
2023-05-22T02:09:14.032Z,1016.93
2023-05-22T02:10:17.632Z,1016.93
2023-05-22T02:11:21.895Z,1016.92
2023-05-22T02:12:26.278Z,1016.92
2023-05-22T02:13:30.668Z,1016.92
2023-05-22T02:14:34.968Z,1016.90
2023-05-22T02:15:39.290Z,1016.88
2023-05-22T02:16:43.616Z,1016.85
2023-05-22T02:17:48.108Z,1016.87
2023-05-22T02:18:52.329Z,1016.86
2023-05-22T02:19:56.563Z,1016.88
2023-05-22T02:21:00.933Z,1016.85
2023-05-22T02:22:05.209Z,1016.88
2023-05-22T02:23:09.627Z,1016.88
2023-05-22T02:24:14.004Z,1016.87
2023-05-22T02:25:18.325Z,1016.89
2023-05-22T02:26:22.679Z,1016.88
2023-05-22T02:27:27.043Z,1016.89
2023-05-22T02:28:31.366Z,1016.89
2023-05-22T02:29:35.701Z,1016.90
2023-05-22T02:30:40.342Z,1016.90
2023-05-22T02:31:44.441Z,1016.88
2023-05-22T02:32:48.770Z,1016.90
2023-05-22T02:33:53.079Z,1016.91
2023-05-22T02:34:57.386Z,1016.89
2023-05-22T02:36:01.828Z,1016.92
2023-05-22T02:37:06.140Z,1016.92
2023-05-22T02:38:10.501Z,1016.93
2023-05-22T02:39:14.892Z,1016.93
2023-05-22T02:40:19.242Z,1016.92
2023-05-22T02:41:23.640Z,1016.91
2023-05-22T02:42:28.310Z,1016.91
2023-05-22T02:43:32.275Z,1016.88
2023-05-22T02:44:36.604Z,1016.89
2023-05-22T02:45:40.917Z,1016.90
2023-05-22T02:46:45.299Z,1016.89
2023-05-22T02:47:49.617Z,1016.86
2023-05-22T02:48:53.984Z,1016.88
2023-05-22T02:49:58.252Z,1016.87
2023-05-22T02:51:02.614Z,1016.87
2023-05-22T02:52:06.953Z,1016.86
2023-05-22T02:53:11.214Z,1016.86
2023-05-22T02:54:15.525Z,1016.88
2023-05-22T02:55:19.929Z,1016.87
2023-05-22T02:56:24.219Z,1016.88
2023-05-22T02:57:28.603Z,1016.87
2023-05-22T02:58:32.895Z,1016.90
2023-05-22T02:59:37.161Z,1016.89
2023-05-22T03:00:41.707Z,1016.90
2023-05-22T03:01:45.867Z,1016.88
2023-05-22T03:02:50.228Z,1016.88
2023-05-22T03:03:54.870Z,1016.89
2023-05-22T03:04:58.993Z,1016.89
2023-05-22T03:06:17.267Z,1016.87
2023-05-22T03:07:20.561Z,1016.88
2023-05-22T03:08:24.782Z,1016.87
2023-05-22T03:09:29.137Z,1016.87
2023-05-22T03:10:33.474Z,1016.85
2023-05-22T03:11:37.892Z,1016.83
2023-05-22T03:12:42.254Z,1016.85
2023-05-22T03:13:46.496Z,1016.85
2023-05-22T03:14:50.703Z,1016.84
2023-05-22T03:15:55.259Z,1016.86
2023-05-22T03:16:59.440Z,1016.84
2023-05-22T03:18:03.833Z,1016.83
2023-05-22T03:19:08.192Z,1016.82
2023-05-22T03:20:12.460Z,1016.81
2023-05-22T03:21:16.726Z,1016.80
2023-05-22T03:22:21.044Z,1016.79
2023-05-22T03:23:25.423Z,1016.78
2023-05-22T03:24:29.712Z,1016.81
2023-05-22T03:25:34.007Z,1016.78
2023-05-22T03:26:38.345Z,1016.78
2023-05-22T03:27:42.713Z,1016.77
2023-05-22T03:28:46.912Z,1016.77
2023-05-22T03:29:51.344Z,1016.76
2023-05-22T03:30:55.687Z,1016.78
2023-05-22T03:31:59.991Z,1016.78
2023-05-22T03:33:04.374Z,1016.78
2023-05-22T03:34:08.768Z,1016.77
2023-05-22T03:35:13.068Z,1016.77
2023-05-22T03:36:17.355Z,1016.77
2023-05-22T03:37:21.722Z,1016.77
2023-05-22T03:38:26.109Z,1016.77
2023-05-22T03:39:30.454Z,1016.75
2023-05-22T03:40:37.907Z,1016.75
2023-05-22T03:41:41.149Z,1016.72
2023-05-22T03:42:45.552Z,1016.71
2023-05-22T03:43:49.837Z,1016.72
2023-05-22T03:44:54.303Z,1016.72
2023-05-22T03:45:58.588Z,1016.70
2023-05-22T03:47:02.887Z,1016.67
2023-05-22T03:48:07.283Z,1016.65
2023-05-22T03:49:11.586Z,1016.67
2023-05-22T03:50:15.932Z,1016.68
2023-05-22T03:51:20.571Z,1016.68
2023-05-22T03:52:24.648Z,1016.68
2023-05-22T03:53:28.986Z,1016.67
2023-05-22T03:54:33.271Z,1016.68
2023-05-22T03:55:37.599Z,1016.70
2023-05-22T03:56:41.982Z,1016.68
2023-05-22T03:57:46.197Z,1016.70
2023-05-22T03:58:50.646Z,1016.69
2023-05-22T03:59:54.980Z,1016.68
2023-05-22T04:01:00.285Z,1016.66
2023-05-22T04:02:04.411Z,1016.67
2023-05-22T04:03:08.790Z,1016.65
2023-05-22T04:04:13.042Z,1016.64
2023-05-22T04:05:17.342Z,1016.65
2023-05-22T04:06:21.748Z,1016.64
2023-05-22T04:07:26.049Z,1016.64
2023-05-22T04:08:30.420Z,1016.61
2023-05-22T04:09:34.696Z,1016.60
2023-05-22T04:10:39.271Z,1016.56
2023-05-22T04:11:44.331Z,1016.56
2023-05-22T04:12:48.242Z,1016.53
2023-05-22T04:13:52.642Z,1016.53
2023-05-22T04:14:56.930Z,1016.51
2023-05-22T04:16:01.350Z,1016.52
2023-05-22T04:17:05.647Z,1016.47
2023-05-22T04:18:09.910Z,1016.49
2023-05-22T04:19:14.246Z,1016.47
2023-05-22T04:20:18.617Z,1016.46
2023-05-22T04:21:22.896Z,1016.46
2023-05-22T04:22:27.321Z,1016.46
2023-05-22T04:23:31.571Z,1016.45
2023-05-22T04:24:35.934Z,1016.47
2023-05-22T04:25:40.302Z,1016.46
2023-05-22T04:26:44.610Z,1016.47
2023-05-22T04:27:48.941Z,1016.46
2023-05-22T04:28:53.236Z,1016.45
2023-05-22T04:29:58.432Z,1016.45
2023-05-22T04:31:02.405Z,1016.46
2023-05-22T04:32:06.682Z,1016.47
2023-05-22T04:33:11.154Z,1016.47
2023-05-22T04:34:15.408Z,1016.49
2023-05-22T04:35:19.772Z,1016.50
2023-05-22T04:36:24.084Z,1016.50
2023-05-22T04:37:28.409Z,1016.50
2023-05-22T04:38:32.873Z,1016.48
2023-05-22T04:39:37.216Z,1016.47
2023-05-22T04:40:41.664Z,1016.44
2023-05-22T04:41:45.812Z,1016.48
2023-05-22T04:42:50.255Z,1016.46
2023-05-22T04:43:54.531Z,1016.46
2023-05-22T04:44:58.787Z,1016.46
2023-05-22T04:46:03.215Z,1016.46
2023-05-22T04:47:08.102Z,1016.47
2023-05-22T04:48:11.932Z,1016.46
2023-05-22T04:49:16.239Z,1016.45
2023-05-22T04:50:20.690Z,1016.45
2023-05-22T04:51:25.126Z,1016.48
2023-05-22T04:52:29.364Z,1016.48
2023-05-22T04:53:33.732Z,1016.50
2023-05-22T04:54:52.192Z,1016.49
2023-05-22T04:55:55.351Z,1016.48
2023-05-22T04:56:59.608Z,1016.50
2023-05-22T04:58:03.976Z,1016.51
2023-05-22T04:59:08.237Z,1016.53
2023-05-22T05:00:12.620Z,1016.53
2023-05-22T05:01:17.088Z,1016.53
2023-05-22T05:02:21.497Z,1016.53
2023-05-22T05:03:25.780Z,1016.53
2023-05-22T05:04:30.089Z,1016.52
2023-05-22T05:05:34.484Z,1016.52
2023-05-22T05:06:38.933Z,1016.52
2023-05-22T05:07:43.165Z,1016.52
2023-05-22T05:08:47.568Z,1016.49
2023-05-22T05:09:51.919Z,1016.49
2023-05-22T05:10:56.220Z,1016.48
2023-05-22T05:12:00.589Z,1016.48
2023-05-22T05:13:04.939Z,1016.46
2023-05-22T05:14:09.375Z,1016.44
2023-05-22T05:15:13.773Z,1016.44
2023-05-22T05:16:21.172Z,1016.44
2023-05-22T05:17:24.616Z,1016.40
2023-05-22T05:18:28.870Z,1016.36
2023-05-22T05:19:36.143Z,1016.36
2023-05-22T05:20:37.856Z,1016.34
2023-05-22T05:21:42.139Z,1016.33
2023-05-22T05:22:46.422Z,1016.33
2023-05-22T05:23:50.836Z,1016.33
2023-05-22T05:24:55.201Z,1016.35
2023-05-22T05:25:59.656Z,1016.34
2023-05-22T05:27:04.035Z,1016.34
2023-05-22T05:28:08.360Z,1016.35
2023-05-22T05:29:12.783Z,1016.31
2023-05-22T05:30:19.537Z,1016.30
2023-05-22T05:31:21.658Z,1016.33
2023-05-22T05:32:40.176Z,1016.33
2023-05-22T05:33:43.521Z,1016.31
2023-05-22T05:34:48.009Z,1016.31
2023-05-22T05:35:52.183Z,1016.30
2023-05-22T05:36:56.520Z,1016.31
2023-05-22T05:38:00.967Z,1016.31
2023-05-22T05:39:05.290Z,1016.32
2023-05-22T05:40:09.733Z,1016.35
2023-05-22T05:41:14.028Z,1016.30
2023-05-22T05:42:18.502Z,1016.30
2023-05-22T05:43:22.829Z,1016.30
2023-05-22T05:44:27.207Z,1016.29
2023-05-22T05:45:31.677Z,1016.29
2023-05-22T05:46:36.129Z,1016.27
2023-05-22T05:47:40.561Z,1016.28
2023-05-22T05:48:44.874Z,1016.23
2023-05-22T05:49:49.334Z,1016.20
2023-05-22T05:50:53.672Z,1016.21
2023-05-22T05:51:58.109Z,1016.21
2023-05-22T05:53:02.476Z,1016.21
2023-05-22T05:54:06.803Z,1016.21
2023-05-22T05:55:11.252Z,1016.18
2023-05-22T05:56:15.686Z,1016.16
2023-05-22T05:57:20.007Z,1016.13
2023-05-22T05:58:24.511Z,1016.12
2023-05-22T05:59:28.913Z,1016.12
2023-05-22T06:00:33.303Z,1016.09
2023-05-22T06:01:37.706Z,1016.06
2023-05-22T06:02:42.274Z,1016.05
2023-05-22T06:03:46.774Z,1016.05
2023-05-22T06:04:50.907Z,1016.04
2023-05-22T06:05:55.466Z,1016.04
2023-05-22T06:06:59.716Z,1016.02
2023-05-22T06:08:04.124Z,1015.99
2023-05-22T06:09:08.524Z,1016.00
2023-05-22T06:11:40.252Z,1016.04
2023-05-22T06:12:44.570Z,1016.03
2023-05-22T06:13:48.883Z,1016.01
2023-05-22T06:14:53.312Z,1016.02
2023-05-22T06:15:59.590Z,1016.05
2023-05-22T06:17:02.012Z,1016.05
2023-05-22T06:18:06.441Z,1016.04
2023-05-22T06:19:10.818Z,1016.03
2023-05-22T06:20:15.167Z,1016.03
2023-05-22T06:21:19.626Z,1016.03
2023-05-22T06:22:24.048Z,1016.03
2023-05-22T06:23:28.423Z,1016.02
2023-05-22T06:24:32.765Z,1016.00
2023-05-22T06:25:37.237Z,1016.05
2023-05-22T06:26:41.667Z,1016.03
2023-05-22T06:27:46.132Z,1016.03
2023-05-22T06:28:50.438Z,1016.03
2023-05-22T06:29:55.675Z,1016.04
2023-05-22T06:30:59.220Z,1016.07
2023-05-22T06:32:03.663Z,1016.01
2023-05-22T06:33:08.092Z,1016.03
2023-05-22T06:34:12.565Z,1016.03
2023-05-22T06:35:16.835Z,1016.01
2023-05-22T06:36:35.278Z,1016.01
2023-05-22T06:37:38.940Z,1016.00
2023-05-22T06:38:43.184Z,1016.02
2023-05-22T06:39:47.550Z,1016.00
2023-05-22T06:40:51.991Z,1015.95
2023-05-22T06:41:56.476Z,1015.93
2023-05-22T06:43:00.882Z,1015.95
2023-05-22T06:44:05.480Z,1015.95
2023-05-22T06:45:09.865Z,1015.94
2023-05-22T06:46:14.320Z,1015.91
2023-05-22T06:47:18.710Z,1015.87
2023-05-22T06:48:23.136Z,1015.86
2023-05-22T06:49:27.646Z,1015.88
2023-05-22T06:50:32.120Z,1015.83
2023-05-22T06:51:50.522Z,1015.80
2023-05-22T06:53:03.095Z,1015.77
2023-05-22T06:54:05.842Z,1015.78
2023-05-22T06:55:10.214Z,1015.75
2023-05-22T06:56:14.587Z,1015.77
2023-05-22T06:57:19.085Z,1015.77
2023-05-22T06:58:37.513Z,1015.79
2023-05-22T06:59:40.911Z,1015.78
2023-05-22T07:00:45.262Z,1015.77
2023-05-22T07:01:52.630Z,1015.73
2023-05-22T07:02:56.179Z,1015.73
2023-05-22T07:04:00.606Z,1015.69
2023-05-22T07:05:04.965Z,1015.69
2023-05-22T07:06:09.652Z,1015.68
2023-05-22T07:07:13.843Z,1015.69
2023-05-22T07:08:18.350Z,1015.70
2023-05-22T07:09:22.672Z,1015.70
2023-05-22T07:10:27.236Z,1015.69
2023-05-22T07:11:31.541Z,1015.71
2023-05-22T07:12:35.956Z,1015.74
2023-05-22T07:13:40.357Z,1015.74
2023-05-22T07:14:44.838Z,1015.76
2023-05-22T07:15:49.260Z,1015.76
2023-05-22T07:18:21.101Z,1015.72
2023-05-22T07:19:25.397Z,1015.70
2023-05-22T07:20:29.833Z,1015.71
2023-05-22T07:21:34.271Z,1015.69
2023-05-22T07:22:38.648Z,1015.66
2023-05-22T07:23:43.120Z,1015.69
2023-05-22T07:25:01.476Z,1015.69
2023-05-22T07:26:10.713Z,1015.71
2023-05-22T07:27:13.716Z,1015.69
2023-05-22T07:28:18.072Z,1015.68
2023-05-22T07:29:23.328Z,1015.64
2023-05-22T07:30:26.977Z,1015.62
2023-05-22T07:31:31.395Z,1015.64
2023-05-22T07:32:35.764Z,1015.62
2023-05-22T07:33:40.155Z,1015.64
2023-05-22T07:34:44.575Z,1015.64
2023-05-22T07:35:49.076Z,1015.63
2023-05-22T07:36:53.536Z,1015.62
2023-05-22T07:37:57.931Z,1015.64
2023-05-22T07:39:16.546Z,1015.62
2023-05-22T07:40:20.048Z,1015.60
2023-05-22T07:41:24.448Z,1015.60
2023-05-22T07:42:28.883Z,1015.58
2023-05-22T07:43:33.372Z,1015.56
2023-05-22T07:44:37.844Z,1015.58
2023-05-22T07:45:42.274Z,1015.56
2023-05-22T07:46:46.709Z,1015.55
2023-05-22T07:47:52.239Z,1015.51
2023-05-22T07:49:01.553Z,1015.54
2023-05-22T07:50:04.720Z,1015.54
2023-05-22T07:51:09.175Z,1015.52
2023-05-22T07:52:13.733Z,1015.52
2023-05-22T07:53:32.086Z,1015.48
2023-05-22T07:54:49.522Z,1015.46
2023-05-22T07:55:53.027Z,1015.48
2023-05-22T07:56:57.377Z,1015.52
2023-05-22T07:58:01.797Z,1015.51
2023-05-22T07:59:06.213Z,1015.50
2023-05-22T08:00:10.654Z,1015.47
2023-05-22T08:01:15.114Z,1015.45
2023-05-22T08:02:19.538Z,1015.47
2023-05-22T08:03:24.540Z,1015.48
2023-05-22T08:04:28.384Z,1015.48
2023-05-22T08:05:32.805Z,1015.49
2023-05-22T08:06:51.220Z,1015.48
2023-05-22T08:08:08.778Z,1015.42
2023-05-22T08:09:11.936Z,1015.49
2023-05-22T08:10:16.491Z,1015.47
2023-05-22T08:11:20.787Z,1015.48
2023-05-22T08:12:25.172Z,1015.43
2023-05-22T08:13:29.680Z,1015.43
2023-05-22T08:14:48.167Z,1015.45
2023-05-22T08:15:51.723Z,1015.43
2023-05-22T08:16:56.056Z,1015.48
2023-05-22T08:18:00.439Z,1015.43
2023-05-22T08:19:04.880Z,1015.43
2023-05-22T08:20:23.426Z,1015.44
2023-05-22T08:21:26.622Z,1015.45
2023-05-22T08:22:31.040Z,1015.49
2023-05-22T08:23:35.441Z,1015.50
2023-05-22T08:24:39.892Z,1015.52
2023-05-22T08:25:44.404Z,1015.49
2023-05-22T08:26:48.726Z,1015.49
2023-05-22T08:27:53.195Z,1015.49
2023-05-22T08:28:57.571Z,1015.44
2023-05-22T08:30:02.144Z,1015.45
2023-05-22T08:31:06.589Z,1015.44
2023-05-22T08:32:10.999Z,1015.37
2023-05-22T08:33:15.546Z,1015.41
2023-05-22T08:34:19.944Z,1015.38
2023-05-22T08:35:24.379Z,1015.39
2023-05-22T08:36:42.871Z,1015.33
2023-05-22T08:37:46.315Z,1015.34
2023-05-22T08:38:50.633Z,1015.39
2023-05-22T08:39:55.150Z,1015.33
2023-05-22T08:40:59.547Z,1015.28
2023-05-22T08:42:03.997Z,1015.24
2023-05-22T08:43:08.563Z,1015.25
2023-05-22T08:44:26.932Z,1015.27
2023-05-22T08:45:44.534Z,1015.24
2023-05-22T08:46:47.703Z,1015.20
2023-05-22T08:47:52.060Z,1015.21
2023-05-22T08:48:56.439Z,1015.10
2023-05-22T08:50:14.888Z,1015.09
2023-05-22T08:51:24.230Z,1015.10
2023-05-22T08:52:41.360Z,1015.14
2023-05-22T08:54:00.732Z,1015.02
2023-05-22T08:55:04.254Z,1014.95
2023-05-22T08:56:11.900Z,1014.99
2023-05-22T08:57:29.200Z,1015.01
2023-05-22T08:58:32.782Z,1014.97
2023-05-22T08:59:37.137Z,1014.99
2023-05-22T09:00:41.722Z,1014.93
2023-05-22T09:01:46.197Z,1014.97
2023-05-22T09:02:50.595Z,1014.93
2023-05-22T09:03:54.998Z,1014.95
2023-05-22T09:04:59.395Z,1014.92
2023-05-22T09:06:03.813Z,1014.88
2023-05-22T09:07:08.377Z,1014.91
2023-05-22T09:08:20.330Z,1014.84
2023-05-22T09:09:17.344Z,1014.89
2023-05-22T09:10:21.729Z,1014.84
2023-05-22T09:11:26.314Z,1014.78
2023-05-22T09:12:30.660Z,1014.79
2023-05-22T09:13:35.105Z,1014.75
2023-05-22T09:14:39.580Z,1014.72
2023-05-22T09:15:44.013Z,1014.70
2023-05-22T09:16:48.460Z,1014.74
2023-05-22T09:17:52.855Z,1014.75
2023-05-22T09:18:57.326Z,1014.79
2023-05-22T09:20:01.793Z,1014.73
2023-05-22T09:21:11.494Z,1014.74
2023-05-22T09:22:10.739Z,1014.74
2023-05-22T09:23:15.289Z,1014.78
2023-05-22T09:24:19.663Z,1014.71
2023-05-22T09:25:24.093Z,1014.67
2023-05-22T09:26:28.589Z,1014.67
2023-05-22T09:27:33.162Z,1014.72
2023-05-22T09:28:37.531Z,1014.64
2023-05-22T09:29:45.043Z,1014.64
2023-05-22T09:30:48.747Z,1014.62
2023-05-22T09:31:53.212Z,1014.59
2023-05-22T09:32:57.667Z,1014.58
2023-05-22T09:34:16.099Z,1014.63
2023-05-22T09:35:33.487Z,1014.59
2023-05-22T09:36:51.208Z,1014.59
2023-05-22T09:37:54.554Z,1014.61
2023-05-22T09:38:58.856Z,1014.51
2023-05-22T09:40:17.233Z,1014.51
2023-05-22T09:41:20.440Z,1014.47
2023-05-22T09:42:24.947Z,1014.49
2023-05-22T09:43:29.442Z,1014.46
2023-05-22T09:46:04.398Z,1014.43
2023-05-22T09:47:24.098Z,1014.37
2023-05-22T09:48:41.517Z,1014.41
2023-05-22T09:49:44.743Z,1014.39
2023-05-22T09:52:19.471Z,1014.40
2023-05-22T09:53:23.013Z,1014.36
2023-05-22T09:54:27.438Z,1014.33
2023-05-22T09:55:37.780Z,1014.31
2023-05-22T09:56:40.888Z,1014.35
2023-05-22T09:57:51.313Z,1014.33
2023-05-22T09:58:54.519Z,1014.29
2023-05-22T09:59:58.832Z,1014.27
2023-05-22T10:01:06.334Z,1014.30
2023-05-22T10:02:09.994Z,1014.28
2023-05-22T10:03:14.392Z,1014.26
2023-05-22T10:04:18.994Z,1014.20
2023-05-22T10:05:26.289Z,1014.22
2023-05-22T10:06:35.819Z,1014.25
2023-05-22T10:07:38.957Z,1014.23
2023-05-22T10:08:43.365Z,1014.13
2023-05-22T10:09:53.782Z,1014.12
2023-05-22T10:10:56.974Z,1014.07
2023-05-22T10:12:07.429Z,1014.04
2023-05-22T10:13:24.662Z,1014.09
2023-05-22T10:14:29.652Z,1014.09
2023-05-22T10:15:38.571Z,1014.14
2023-05-22T10:16:55.846Z,1014.07
2023-05-22T10:17:59.341Z,1014.10
2023-05-22T10:19:04.608Z,1014.18
2023-05-22T10:21:36.300Z,1014.07
2023-05-22T10:22:54.673Z,1014.04
2023-05-22T10:23:58.299Z,1014.13
2023-05-22T10:25:02.643Z,1014.07
2023-05-22T10:26:07.072Z,1014.01
2023-05-22T10:27:25.480Z,1014.01
2023-05-22T10:28:28.913Z,1014.01
2023-05-22T10:29:33.476Z,1014.02
2023-05-22T10:30:45.025Z,1013.95
2023-05-22T10:32:02.128Z,1014.06
2023-05-22T10:33:05.708Z,1013.97
2023-05-22T10:35:43.376Z,1013.95
2023-05-22T10:36:48.292Z,1013.91
2023-05-22T10:37:50.765Z,1013.90
2023-05-22T10:38:55.172Z,1013.80
2023-05-22T10:39:59.656Z,1013.81
2023-05-22T10:41:04.061Z,1013.77
2023-05-22T10:42:08.643Z,1013.83
2023-05-22T10:43:16.053Z,1013.79
2023-05-22T10:44:19.689Z,1013.80
2023-05-22T10:45:30.418Z,1013.79
2023-05-22T10:46:36.369Z,1013.75
2023-05-22T10:47:45.955Z,1013.82
2023-05-22T10:48:49.008Z,1013.77
2023-05-22T10:49:53.420Z,1013.78
2023-05-22T10:50:59.751Z,1013.72
2023-05-22T10:52:02.285Z,1013.71
2023-05-22T10:53:06.868Z,1013.66
2023-05-22T10:54:11.314Z,1013.66
2023-05-22T10:55:15.829Z,1013.61
2023-05-22T10:56:34.313Z,1013.63
2023-05-22T10:57:37.740Z,1013.67
2023-05-22T10:58:45.322Z,1013.55
2023-05-22T11:00:03.075Z,1013.58
2023-05-22T11:01:06.771Z,1013.54
2023-05-22T11:02:11.613Z,1013.55
2023-05-22T11:04:42.937Z,1013.53
2023-05-22T11:05:47.333Z,1013.50
2023-05-22T11:07:05.882Z,1013.51
2023-05-22T11:08:09.281Z,1013.49
2023-05-22T11:09:16.759Z,1013.46
2023-05-22T11:10:34.357Z,1013.49
2023-05-22T11:11:37.875Z,1013.47
2023-05-22T11:12:42.318Z,1013.44
2023-05-22T11:13:46.767Z,1013.36
2023-05-22T11:14:51.177Z,1013.34
2023-05-22T11:15:55.611Z,1013.37
2023-05-22T11:17:00.217Z,1013.38
2023-05-22T11:18:18.577Z,1013.47
2023-05-22T11:19:24.889Z,1013.42
2023-05-22T11:20:34.434Z,1013.45
2023-05-22T11:21:37.503Z,1013.39
2023-05-22T11:22:47.906Z,1013.38
2023-05-22T11:23:51.059Z,1013.34
2023-05-22T11:25:09.451Z,1013.33
2023-05-22T11:26:13.020Z,1013.37
2023-05-22T11:27:20.439Z,1013.35
2023-05-22T11:28:24.045Z,1013.29
2023-05-22T11:29:34.457Z,1013.33
2023-05-22T11:30:51.732Z,1013.26
2023-05-22T11:31:54.927Z,1013.23
2023-05-22T11:33:05.607Z,1013.23
2023-05-22T11:34:08.517Z,1013.23
2023-05-22T11:35:12.984Z,1013.20
2023-05-22T11:36:23.502Z,1013.08
2023-05-22T11:37:26.719Z,1013.15
2023-05-22T11:38:31.146Z,1013.14
2023-05-22T11:39:35.595Z,1013.15
2023-05-22T11:40:43.055Z,1013.17
2023-05-22T11:41:46.616Z,1013.07
2023-05-22T11:42:51.128Z,1013.07
2023-05-22T11:43:55.535Z,1013.06
2023-05-22T11:45:00.108Z,1013.01
2023-05-22T11:46:07.511Z,1012.99
2023-05-22T11:47:25.154Z,1013.03
2023-05-22T11:48:28.614Z,1012.99
2023-05-22T11:49:38.990Z,1012.95
2023-05-22T11:50:56.169Z,1012.95
2023-05-22T11:51:59.511Z,1012.94
2023-05-22T11:53:04.098Z,1012.88
2023-05-22T11:54:08.477Z,1012.91
2023-05-22T11:55:13.031Z,1012.94
2023-05-22T11:56:23.470Z,1012.90
2023-05-22T11:57:40.657Z,1012.89
2023-05-22T11:58:44.024Z,1012.88
2023-05-22T11:59:48.520Z,1012.88
2023-05-22T12:00:53.076Z,1012.88
2023-05-22T12:01:57.395Z,1012.85
2023-05-22T12:03:02.067Z,1012.81
2023-05-22T12:04:12.571Z,1012.82
2023-05-22T12:05:15.597Z,1012.82
2023-05-22T12:06:20.113Z,1012.88
2023-05-22T12:07:24.495Z,1012.80
2023-05-22T12:08:29.016Z,1012.75
2023-05-22T12:09:33.444Z,1012.79
2023-05-22T12:10:38.188Z,1012.74
2023-05-22T12:11:56.493Z,1012.75
2023-05-22T12:12:59.895Z,1012.79
2023-05-22T12:14:18.367Z,1012.77
2023-05-22T12:15:21.970Z,1012.70
2023-05-22T12:16:29.396Z,1012.66
2023-05-22T12:17:47.098Z,1012.67
2023-05-22T12:19:04.786Z,1012.71
2023-05-22T12:20:08.344Z,1012.64
2023-05-22T12:22:40.219Z,1012.63
2023-05-22T12:23:44.628Z,1012.61
2023-05-22T12:24:49.060Z,1012.60
2023-05-22T12:25:53.542Z,1012.60
2023-05-22T12:26:58.047Z,1012.58
2023-05-22T12:28:02.615Z,1012.61
2023-05-22T12:29:21.102Z,1012.65
2023-05-22T12:30:24.614Z,1012.62
2023-05-22T12:32:56.518Z,1012.59
2023-05-22T12:34:15.010Z,1012.55
2023-05-22T12:35:18.718Z,1012.59
2023-05-22T12:36:22.994Z,1012.62
2023-05-22T12:37:33.701Z,1012.65
2023-05-22T12:38:50.553Z,1012.58
2023-05-22T12:39:54.231Z,1012.58
2023-05-22T12:40:58.697Z,1012.54
2023-05-22T12:42:03.181Z,1012.52
2023-05-22T12:43:07.631Z,1012.53
2023-05-22T12:44:12.083Z,1012.49
2023-05-22T12:45:16.579Z,1012.45
2023-05-22T12:46:35.311Z,1012.54
2023-05-22T12:47:41.626Z,1012.47
2023-05-22T12:48:48.149Z,1012.48
2023-05-22T12:50:05.846Z,1012.46
2023-05-22T12:51:23.556Z,1012.47
2023-05-22T12:52:33.029Z,1012.45
2023-05-22T12:53:50.148Z,1012.47
2023-05-22T12:54:53.792Z,1012.43
2023-05-22T12:56:04.154Z,1012.46
2023-05-22T12:57:07.268Z,1012.45
2023-05-22T12:58:25.713Z,1012.46
2023-05-22T12:59:29.192Z,1012.46
2023-05-22T13:02:01.089Z,1012.41
2023-05-22T13:03:05.441Z,1012.46
2023-05-22T13:04:09.976Z,1012.39
2023-05-22T13:05:14.493Z,1012.43
2023-05-22T13:06:21.868Z,1012.45
2023-05-22T13:07:25.658Z,1012.36
2023-05-22T13:08:30.039Z,1012.41
2023-05-22T13:09:37.604Z,1012.43
2023-05-22T13:10:41.249Z,1012.46
2023-05-22T13:11:45.736Z,1012.44
2023-05-22T13:12:50.002Z,1012.46
2023-05-22T13:13:54.504Z,1012.46
2023-05-22T13:15:13.061Z,1012.42
2023-05-22T13:16:16.461Z,1012.47
2023-05-22T13:17:20.762Z,1012.40
2023-05-22T13:18:25.230Z,1012.41
2023-05-22T13:19:29.758Z,1012.40
2023-05-22T13:20:34.211Z,1012.40
2023-05-22T13:21:38.739Z,1012.43
2023-05-22T13:22:43.354Z,1012.41
2023-05-22T13:23:53.753Z,1012.46
2023-05-22T13:24:56.958Z,1012.43
2023-05-22T13:26:15.433Z,1012.45
2023-05-22T13:27:18.898Z,1012.43
2023-05-22T13:28:23.312Z,1012.41
2023-05-22T13:29:27.823Z,1012.40
2023-05-22T13:30:32.230Z,1012.39
2023-05-22T13:31:36.786Z,1012.46